Stip, Macedonia
Current Conditions -  °F | °C
As of 3:30 PM on Tuesday 21 Oct 2014 (Local Time) from LWSK Reporting Station
Clear Clear  
Wind Chill: 70°   Ceiling: Unl
Heat Index: 70°   Visibility: 6mi
Dew Point: 50°   Wind: 2mph
Humidity: 49%   Direction: 260°W
Pressure: 29.85"   Gusts: NA
Location:  41.75°N, 22.2°E
Report Text: LWSK 211330Z 26002KT CAVOK 21/10 Q1011 NOSIG
Loading
Personal Weather Stations






























Interactive Weather Map
Tropical Storm Tracking
New forecast layout! Learn more

10-Day Weather Forecast

Advertisements
Track Severe Weather on mobile